CST,Max TemperatureF,Mean TemperatureF,Min TemperatureF,Max Dew PointF,MeanDew PointF,Min DewpointF,Max Humidity, Mean Humidity, Min Humidity, Max Sea Level PressureIn, Mean Sea Level PressureIn, Min Sea Level PressureIn, Max VisibilityMiles, Mean VisibilityMiles, Min VisibilityMiles, Max Wind SpeedMPH, Mean Wind SpeedMPH, Max Gust SpeedMPH,PrecipitationIn, CloudCover, Events, WindDirDegrees
2011-12-1,68,54,40,48,44,36,93,71,49,30.35,30.26,30.19,10,10,3,15,8,20,0.00,0,,110
2011-12-2,71,56,40,50,41,23,93,55,17,30.39,30.32,30.27,10,7,2,16,8,22,0.00,0,,95
2011-12-3,77,65,53,64,60,50,93,79,64,30.25,30.17,30.12,10,10,7,23,13,30,T,6,,129
2011-12-4,75,70,65,66,64,63,93,81,68,30.14,30.03,29.96,10,10,7,21,10,29,0.01,7,,139
2011-12-5,73,61,48,70,61,45,93,88,83,30.14,29.97,29.88,10,8,1,17,10,23,0.22,7,Rain,259
2011-12-6,48,44,40,43,39,34,92,82,71,30.29,30.20,30.14,10,10,8,17,10,22,T,8,,339
2011-12-7,50,40,30,32,28,25,92,67,42,30.42,30.34,30.27,10,10,9,18,7,24,0.00,3,,321
2011-12-8,53,41,28,33,30,25,92,67,42,30.42,30.33,30.25,10,10,10,12,4,15,0.00,0,,81
2011-12-9,59,48,36,40,37,32,85,64,43,30.43,30.31,30.21,10,9,5,13,7,16,0.00,6,,63
2011-12-10,60,52,43,36,34,30,70,54,37,30.53,30.46,30.40,10,10,10,24,11,31,0.00,1,,39
2011-12-11,56,48,39,35,30,23,76,53,29,30.46,30.39,30.33,10,10,10,21,10,26,0.00,2,,53
2011-12-12,67,53,38,49,40,31,86,60,34,30.37,30.31,30.27,10,10,7,13,6,15,0.00,1,,67
2011-12-13,68,57,46,58,52,45,100,87,73,30.38,30.31,30.25,10,4,0,14,6,16,0.00,6,Fog,86
2011-12-14,76,67,57,66,61,55,100,85,69,30.26,30.17,30.08,10,6,0,20,11,23,0.00,8,Fog,133
2011-12-15,76,71,65,70,67,64,100,87,73,30.14,30.09,30.04,10,4,0,15,5,21,0.23,7,Fog-Rain,155
2011-12-16,68,60,52,67,60,46,100,90,80,30.35,30.18,30.07,10,6,0,18,10,24,0.23,8,Fog-Rain,48
2011-12-17,65,55,45,48,39,29,89,58,27,30.46,30.40,30.33,10,10,9,21,9,24,0.00,4,,17
2011-12-18,66,52,37,45,37,33,86,59,31,30.45,30.36,30.24,10,10,10,13,5,16,0.00,0,,80
2011-12-19,74,61,48,58,53,46,93,73,53,30.22,30.06,29.97,10,10,7,23,11,29,0.00,3,,126
2011-12-20,70,62,54,67,59,46,93,83,72,30.01,29.93,29.88,10,8,2,24,6,38,0.43,7,Rain,231
2011-12-21,66,56,45,51,44,40,83,64,44,30.09,29.99,29.93,10,10,10,10,6,15,0.00,4,,26
2011-12-22,62,57,52,61,53,50,93,83,72,30.20,29.98,29.77,10,7,0,29,8,39,1.98,8,Fog-Rain-Thunderstorm,23
2011-12-23,55,52,49,52,48,42,93,83,72,30.37,30.29,30.21,10,10,9,18,10,23,0.00,8,,34
2011-12-24,51,48,45,45,42,39,93,82,71,30.40,30.32,30.26,10,8,2,20,13,24,1.09,8,Rain,46
2011-12-25,54,50,46,52,48,44,93,90,86,30.34,30.26,30.22,10,7,2,18,10,23,0.51,8,Rain,26
2011-12-26,53,48,43,52,48,41,100,92,83,30.23,30.15,30.04,10,6,1,15,5,22,T,7,Rain,282
2011-12-27,61,51,40,41,39,36,96,71,46,30.26,30.19,30.14,10,10,7,14,6,20,0.00,0,,302
2011-12-28,62,48,34,47,41,32,96,76,55,30.25,30.17,30.09,10,10,8,13,3,18,0.00,0,,141
2011-12-29,72,58,43,57,48,41,100,75,49,30.10,30.02,29.95,10,5,0,13,4,17,0.00,3,Fog,156
2011-12-30,75,58,40,61,47,39,100,79,57,30.09,30.00,29.94,10,4,0,14,4,21,0.00,3,Fog,224
2011-12-31,76,64,51,70,61,51,100,90,79,30.15,30.08,30.02,10,4,0,16,7,23,T,7,Fog-Rain,190